createdAt,value
2019-01-19T00:02:09.612Z,125.80
2019-01-19T00:04:46.994Z,118.23
2019-01-19T00:07:30.544Z,118.50
2019-01-19T00:10:21.028Z,119.07
2019-01-19T00:13:11.859Z,117.23
2019-01-19T00:16:01.456Z,101.60
2019-01-19T00:18:44.865Z,120.43
2019-01-19T00:21:28.278Z,119.90
2019-01-19T00:24:14.558Z,109.30
2019-01-19T00:26:49.081Z,109.53
2019-01-19T00:29:29.479Z,103.37
2019-01-19T00:32:00.996Z,119.10
2019-01-19T00:34:41.495Z,102.53
2019-01-19T00:37:13.011Z,121.47
2019-01-19T00:39:44.839Z,97.77
2019-01-19T00:42:28.099Z,108.33
2019-01-19T00:45:08.134Z,100.50
2019-01-19T00:47:55.784Z,106.60
2019-01-19T00:50:33.410Z,105.57
2019-01-19T00:53:19.797Z,118.20
2019-01-19T00:55:51.333Z,106.70
2019-01-19T00:58:25.674Z,98.90
2019-01-19T01:00:57.184Z,108.23
2019-01-19T01:04:00.213Z,103.90
2019-01-19T01:06:51.027Z,89.40
2019-01-19T01:09:31.446Z,103.30
2019-01-19T01:12:08.914Z,112.37
2019-01-19T01:14:58.378Z,106.43
2019-01-19T01:17:30.200Z,113.53
2019-01-19T01:20:16.679Z,110.53
2019-01-19T01:22:51.156Z,106.50
2019-01-19T01:25:25.290Z,107.30
2019-01-19T01:28:08.452Z,100.50
2019-01-19T01:30:51.739Z,102.70
2019-01-19T01:33:23.447Z,99.83
2019-01-19T01:36:21.707Z,100.33
2019-01-19T01:39:15.538Z,110.50
2019-01-19T01:41:47.052Z,116.27
2019-01-19T01:44:38.843Z,96.20
2019-01-19T01:47:32.557Z,96.73
2019-01-19T01:50:16.043Z,107.37
2019-01-19T01:52:59.322Z,103.63
2019-01-19T01:55:33.628Z,103.63
2019-01-19T01:58:07.946Z,93.60
2019-01-19T02:00:47.613Z,103.87
2019-01-19T02:03:28.227Z,109.77
2019-01-19T02:06:14.455Z,102.83
2019-01-19T02:08:46.020Z,107.23
2019-01-19T02:11:32.423Z,108.10
2019-01-19T02:14:15.871Z,99.47
2019-01-19T02:17:03.630Z,106.73
2019-01-19T02:19:40.611Z,171.43
2019-01-19T02:22:14.935Z,168.83
2019-01-19T02:25:11.679Z,143.67
2019-01-19T02:28:00.827Z,134.30
2019-01-19T02:30:41.151Z,138.73
2019-01-19T02:33:30.338Z,112.27
2019-01-19T02:36:21.149Z,97.77
2019-01-19T02:39:04.295Z,82.83
2019-01-19T02:41:44.839Z,80.40
2019-01-19T02:44:16.350Z,72.70
2019-01-19T02:47:14.990Z,77.70
2019-01-19T02:49:58.317Z,83.83
2019-01-19T02:52:47.590Z,75.07
2019-01-19T02:55:35.536Z,70.07
2019-01-19T02:58:30.775Z,82.30
2019-01-19T03:01:11.086Z,82.47
2019-01-19T03:04:07.811Z,85.33
2019-01-19T03:06:44.936Z,79.20
2019-01-19T03:09:21.987Z,74.00
2019-01-19T03:11:59.079Z,77.13
2019-01-19T03:14:47.092Z,72.70
2019-01-19T03:17:33.611Z,71.87
2019-01-19T03:20:11.067Z,85.77
2019-01-19T03:22:45.539Z,77.97
2019-01-19T03:25:51.680Z,81.70
2019-01-19T03:28:39.619Z,81.60
2019-01-19T03:31:25.979Z,75.70
2019-01-19T03:34:18.626Z,65.83
2019-01-19T03:37:06.745Z,65.90
2019-01-19T03:40:11.032Z,71.20
2019-01-19T03:42:45.031Z,72.07
2019-01-19T03:45:16.536Z,68.73
2019-01-19T03:47:59.621Z,58.50
2019-01-19T03:50:39.713Z,64.63
2019-01-19T03:53:20.847Z,71.00
2019-01-19T03:55:54.877Z,65.90
2019-01-19T03:58:29.076Z,66.70
2019-01-19T04:01:06.591Z,70.77
2019-01-19T04:03:46.481Z,69.77
2019-01-19T04:06:18.318Z,80.27
2019-01-19T04:09:10.598Z,71.20
2019-01-19T04:12:10.192Z,81.13
2019-01-19T04:14:59.375Z,76.73
2019-01-19T04:17:48.091Z,92.30
2019-01-19T04:20:52.668Z,74.87
2019-01-19T04:23:21.092Z,78.37
2019-01-19T04:25:52.819Z,74.00
2019-01-19T04:28:21.893Z,73.87
2019-01-19T04:30:50.363Z,76.20
2019-01-19T04:33:18.773Z,70.70
2019-01-19T04:35:47.188Z,78.30
2019-01-19T04:38:15.623Z,71.60
2019-01-19T04:40:44.070Z,70.93
2019-01-19T04:43:12.464Z,68.17
2019-01-19T04:45:40.873Z,75.47
2019-01-19T04:48:09.403Z,69.83
2019-01-19T04:50:37.800Z,63.57
2019-01-19T04:53:06.451Z,68.33
2019-01-19T04:55:34.880Z,70.30
2019-01-19T04:58:03.300Z,62.23
2019-01-19T05:00:31.725Z,63.27
2019-01-19T05:03:00.142Z,68.07
2019-01-19T05:05:28.588Z,74.03
2019-01-19T05:07:57.005Z,67.47
2019-01-19T05:10:25.442Z,63.30
2019-01-19T05:12:53.873Z,65.00
2019-01-19T05:15:22.530Z,68.00
2019-01-19T05:17:51.120Z,61.83
2019-01-19T05:20:19.545Z,61.97
2019-01-19T05:22:47.958Z,52.83
2019-01-19T05:25:16.379Z,55.87
2019-01-19T05:27:44.796Z,58.20
2019-01-19T05:30:18.089Z,54.60
2019-01-19T05:32:46.652Z,57.80
2019-01-19T05:35:15.419Z,54.67
2019-01-19T05:37:43.859Z,63.73
2019-01-19T05:40:13.012Z,63.27
2019-01-19T05:42:41.420Z,59.10
2019-01-19T05:45:11.993Z,61.37
2019-01-19T05:47:40.471Z,60.50
2019-01-19T05:50:17.539Z,62.50
2019-01-19T05:52:46.189Z,52.50
2019-01-19T05:55:14.699Z,53.33
2019-01-19T05:57:43.198Z,56.50
2019-01-19T06:00:20.048Z,58.30
2019-01-19T06:02:48.455Z,62.43
2019-01-19T06:05:16.861Z,59.90
2019-01-19T06:07:45.298Z,63.10
2019-01-19T06:10:15.663Z,60.93
2019-01-19T06:12:44.257Z,57.27
2019-01-19T06:15:14.980Z,53.63
2019-01-19T06:17:43.497Z,54.70
2019-01-19T06:20:14.443Z,58.43
2019-01-19T06:22:42.860Z,51.83
2019-01-19T06:25:15.465Z,61.53
2019-01-19T06:27:43.959Z,60.20
2019-01-19T06:30:17.952Z,51.43
2019-01-19T06:32:46.726Z,51.67
2019-01-19T06:35:15.188Z,58.07
2019-01-19T06:37:43.611Z,55.17
2019-01-19T06:40:14.360Z,54.97
2019-01-19T06:42:42.808Z,50.03
2019-01-19T06:45:14.248Z,59.03
2019-01-19T06:47:42.649Z,57.63
2019-01-19T06:50:16.144Z,62.90
2019-01-19T06:52:44.612Z,55.67
2019-01-19T06:55:15.860Z,56.97
2019-01-19T06:57:44.516Z,69.67
2019-01-19T07:00:17.556Z,68.43
2019-01-19T07:02:46.099Z,54.20
2019-01-19T07:05:14.851Z,56.37
2019-01-19T07:07:43.319Z,59.80
2019-01-19T07:10:17.167Z,57.60
2019-01-19T07:12:45.735Z,59.63
2019-01-19T07:15:14.520Z,58.73
2019-01-19T07:17:42.938Z,59.23
2019-01-19T07:20:16.715Z,54.77
2019-01-19T07:22:45.196Z,66.37
2019-01-19T07:25:14.103Z,65.87
2019-01-19T07:27:42.516Z,57.17
2019-01-19T07:30:13.768Z,62.07
2019-01-19T07:32:42.222Z,58.10
2019-01-19T07:35:10.727Z,62.50
2019-01-19T07:37:39.133Z,61.03
2019-01-19T07:40:15.734Z,61.00
2019-01-19T07:42:44.703Z,60.63
2019-01-19T07:45:14.748Z,57.23
2019-01-19T07:47:43.904Z,62.80
2019-01-19T07:50:14.453Z,58.90
2019-01-19T07:52:42.976Z,67.07
2019-01-19T07:55:13.539Z,64.00
2019-01-19T07:57:42.066Z,65.23
2019-01-19T08:00:16.235Z,64.07
2019-01-19T08:02:44.643Z,71.53
2019-01-19T08:05:13.155Z,71.10
2019-01-19T08:07:41.584Z,65.27
2019-01-19T08:10:13.020Z,66.13
2019-01-19T08:12:41.504Z,64.07
2019-01-19T08:15:13.031Z,63.97
2019-01-19T08:17:41.524Z,67.17
2019-01-19T08:20:12.507Z,72.83
2019-01-19T08:22:40.934Z,70.33
2019-01-19T08:25:11.175Z,72.23
2019-01-19T08:27:39.607Z,63.30
2019-01-19T08:30:16.773Z,69.80
2019-01-19T08:32:45.211Z,73.17
2019-01-19T08:35:15.275Z,84.30
2019-01-19T08:37:43.872Z,80.83
2019-01-19T08:40:15.548Z,80.40
2019-01-19T08:42:44.523Z,85.60
2019-01-19T08:45:13.290Z,79.30
2019-01-19T08:47:41.700Z,87.63
2019-01-19T08:50:10.975Z,89.67
2019-01-19T08:52:39.420Z,90.63
2019-01-19T08:55:09.063Z,86.23
2019-01-19T08:57:37.499Z,91.63
2019-01-19T09:00:17.152Z,93.90
2019-01-19T09:02:45.656Z,96.17
2019-01-19T09:05:14.081Z,95.30
2019-01-19T09:07:42.611Z,91.90
2019-01-19T09:10:16.027Z,104.33
2019-01-19T09:12:44.484Z,111.57
2019-01-19T09:15:18.043Z,116.97
2019-01-19T09:17:46.606Z,109.50
2019-01-19T09:20:16.516Z,123.60
2019-01-19T09:22:46.731Z,123.50
2019-01-19T09:25:15.935Z,117.70
2019-01-19T09:27:44.347Z,126.03
2019-01-19T09:30:21.108Z,120.63
2019-01-19T09:32:49.757Z,124.50
2019-01-19T09:35:18.642Z,128.13
2019-01-19T09:37:47.148Z,135.53
2019-01-19T09:40:18.950Z,129.10
2019-01-19T09:42:47.456Z,135.83
2019-01-19T09:45:17.552Z,134.73
2019-01-19T09:47:46.019Z,132.33
2019-01-19T09:50:16.020Z,141.87
2019-01-19T09:52:44.541Z,133.13
2019-01-19T09:55:13.647Z,139.77
2019-01-19T09:57:42.230Z,142.63
2019-01-19T10:00:19.382Z,141.20
2019-01-19T10:02:47.817Z,148.53
2019-01-19T10:05:19.088Z,149.63
2019-01-19T10:07:48.583Z,144.83
2019-01-19T10:10:17.290Z,143.07
2019-01-19T10:12:45.779Z,151.00
2019-01-19T10:15:16.470Z,147.73
2019-01-19T10:17:44.872Z,152.53
2019-01-19T10:20:18.678Z,152.27
2019-01-19T10:22:47.115Z,149.50
2019-01-19T10:25:16.458Z,158.33
2019-01-19T10:27:45.032Z,150.93
2019-01-19T10:30:21.423Z,175.33
2019-01-19T10:32:50.015Z,164.17
2019-01-19T10:35:18.398Z,169.17
2019-01-19T10:37:46.944Z,153.00
2019-01-19T10:40:16.839Z,160.67
2019-01-19T10:42:45.247Z,160.03
2019-01-19T10:45:18.759Z,171.07
2019-01-19T10:47:47.203Z,164.47
2019-01-19T10:50:17.552Z,161.17
2019-01-19T10:52:46.532Z,142.27
2019-01-19T10:55:17.568Z,150.27
2019-01-19T10:57:46.007Z,152.23
2019-01-19T11:00:25.879Z,174.80
2019-01-19T11:02:54.959Z,147.57
2019-01-19T11:05:23.526Z,158.97
2019-01-19T11:07:52.131Z,177.10
2019-01-19T11:10:23.144Z,166.80
2019-01-19T11:12:51.663Z,157.93
2019-01-19T11:15:20.328Z,166.67
2019-01-19T11:17:48.772Z,160.80
2019-01-19T11:20:22.003Z,159.63
2019-01-19T11:22:50.484Z,112.57
2019-01-19T11:25:18.987Z,156.97
2019-01-19T11:27:47.419Z,145.10
2019-01-19T11:30:21.167Z,129.40
2019-01-19T11:32:49.661Z,142.60
2019-01-19T11:35:18.387Z,137.37
2019-01-19T11:37:46.841Z,132.43
2019-01-19T11:40:18.036Z,92.23
2019-01-19T11:42:46.835Z,110.33
2019-01-19T11:45:23.067Z,135.33
2019-01-19T11:47:51.519Z,129.40
2019-01-19T11:50:20.547Z,137.43
2019-01-19T11:52:49.056Z,80.60
2019-01-19T11:55:19.182Z,80.63
2019-01-19T11:57:52.848Z,102.03
2019-01-19T12:00:24.354Z,87.13
2019-01-19T12:02:52.775Z,123.20
2019-01-19T12:05:21.195Z,124.47
2019-01-19T12:07:49.724Z,119.20
2019-01-19T12:10:23.531Z,125.80
2019-01-19T12:12:51.964Z,103.00
2019-01-19T12:15:20.555Z,101.17
2019-01-19T12:17:49.068Z,104.97
2019-01-19T12:20:23.138Z,94.60
2019-01-19T12:22:51.705Z,106.93
2019-01-19T12:25:24.709Z,108.90
2019-01-19T12:27:53.631Z,93.03
2019-01-19T12:30:27.441Z,63.37
2019-01-19T12:32:56.020Z,93.57
2019-01-19T12:35:24.656Z,53.83
2019-01-19T12:37:53.240Z,68.43
2019-01-19T12:40:24.052Z,78.53
2019-01-19T12:42:58.139Z,84.10
2019-01-19T12:45:29.578Z,86.30
2019-01-19T12:47:57.992Z,80.03
2019-01-19T12:50:27.571Z,90.10
2019-01-19T12:52:56.005Z,88.87
2019-01-19T12:55:24.435Z,46.37
2019-01-19T12:57:52.843Z,74.17
2019-01-19T13:00:28.258Z,77.60
2019-01-19T13:02:57.144Z,74.03
2019-01-19T13:05:31.171Z,58.20
2019-01-19T13:07:59.644Z,55.30
2019-01-19T13:10:31.121Z,57.70
2019-01-19T13:13:00.395Z,68.60
2019-01-19T13:15:34.486Z,58.53
2019-01-19T13:18:22.222Z,69.73
2019-01-19T13:21:15.804Z,75.80
2019-01-19T13:23:47.316Z,41.17
2019-01-19T13:26:30.809Z,47.00
2019-01-19T13:29:20.019Z,47.43
2019-01-19T13:32:00.280Z,59.77
2019-01-19T13:34:34.713Z,59.60
2019-01-19T13:37:08.948Z,56.23
2019-01-19T13:40:07.195Z,56.73
2019-01-19T13:42:43.940Z,49.43
2019-01-19T13:45:24.080Z,45.33
2019-01-19T13:48:04.004Z,49.23
2019-01-19T13:50:38.553Z,50.40
2019-01-19T13:53:30.860Z,55.23
2019-01-19T13:56:20.025Z,53.67
2019-01-19T13:58:57.411Z,51.47
2019-01-19T14:01:28.988Z,54.90
2019-01-19T14:04:00.495Z,55.77
2019-01-19T14:06:35.776Z,50.43
2019-01-19T14:09:10.260Z,61.57
2019-01-19T14:11:50.516Z,51.47
2019-01-19T14:14:27.979Z,55.07
2019-01-19T14:17:16.636Z,63.50
2019-01-19T14:19:56.883Z,55.97
2019-01-19T14:22:36.864Z,64.67
2019-01-19T14:25:24.892Z,61.73
2019-01-19T14:27:56.398Z,61.47
2019-01-19T14:30:27.864Z,61.37
2019-01-19T14:32:59.422Z,66.77
2019-01-19T14:35:45.086Z,55.57
2019-01-19T14:38:38.472Z,62.07
2019-01-19T14:41:27.932Z,62.10
2019-01-19T14:43:59.432Z,63.07
2019-01-19T14:46:48.568Z,51.57
2019-01-19T14:49:32.032Z,62.17
2019-01-19T14:52:30.375Z,57.33
2019-01-19T14:55:19.428Z,59.53
2019-01-19T14:57:54.064Z,58.17
2019-01-19T15:00:40.347Z,64.47
2019-01-19T15:03:26.627Z,61.30
2019-01-19T15:06:09.818Z,54.20
2019-01-19T15:08:41.335Z,64.47
2019-01-19T15:11:29.355Z,63.37
2019-01-19T15:14:03.428Z,70.33
2019-01-19T15:16:46.408Z,61.47
2019-01-19T15:19:44.735Z,71.60
2019-01-19T15:22:22.163Z,72.97
2019-01-19T15:24:56.665Z,63.97
2019-01-19T15:27:33.975Z,65.27
2019-01-19T15:30:20.444Z,67.03
2019-01-19T15:32:54.422Z,63.33
2019-01-19T15:35:31.733Z,62.47
2019-01-19T15:38:22.395Z,71.37
2019-01-19T15:41:08.544Z,73.37
2019-01-19T15:43:45.904Z,58.67
2019-01-19T15:46:19.943Z,70.90
2019-01-19T15:49:00.228Z,67.17
2019-01-19T15:51:47.836Z,77.43
2019-01-19T15:54:28.476Z,74.90
2019-01-19T15:57:11.875Z,81.10
2019-01-19T16:00:02.615Z,87.20
2019-01-19T16:03:08.447Z,81.40
2019-01-19T16:05:57.855Z,82.33
2019-01-19T16:08:46.972Z,76.10
2019-01-19T16:11:27.104Z,84.83
2019-01-19T16:13:58.688Z,82.83
2019-01-19T16:16:55.471Z,80.23
2019-01-19T16:19:50.823Z,80.47
2019-01-19T16:22:33.563Z,77.17
2019-01-19T16:25:37.872Z,84.80
2019-01-19T16:28:28.541Z,84.27
2019-01-19T16:31:14.870Z,92.40
2019-01-19T16:34:00.756Z,102.30
2019-01-19T16:36:40.979Z,139.07
2019-01-19T16:39:45.073Z,540.83
2019-01-19T16:42:41.977Z,263.47
2019-01-19T16:45:28.455Z,146.27
2019-01-19T16:48:05.537Z,102.87
2019-01-19T16:50:46.049Z,93.60
2019-01-19T16:53:20.081Z,91.90
2019-01-19T16:56:12.211Z,87.23
2019-01-19T16:58:52.268Z,89.87
2019-01-19T17:01:41.692Z,91.17
2019-01-19T17:04:21.934Z,88.83
2019-01-19T17:07:28.051Z,91.83
2019-01-19T17:10:08.324Z,87.60
2019-01-19T17:12:45.734Z,99.20
2019-01-19T17:15:20.047Z,92.83
2019-01-19T17:17:51.611Z,110.43
2019-01-19T17:20:37.929Z,128.67
2019-01-19T17:23:14.920Z,122.50
2019-01-19T17:26:15.005Z,102.07
2019-01-19T17:29:01.371Z,97.33
2019-01-19T17:31:38.576Z,94.47
2019-01-19T17:34:27.743Z,83.87
2019-01-19T17:37:04.924Z,81.57
2019-01-19T17:40:02.056Z,85.77
2019-01-19T17:42:45.637Z,83.83
2019-01-19T17:45:17.153Z,79.00
2019-01-19T17:48:12.447Z,86.73
2019-01-19T17:51:14.000Z,83.43
2019-01-19T17:54:01.807Z,83.37
2019-01-19T17:56:36.061Z,88.53
2019-01-19T17:59:26.890Z,90.77
2019-01-19T18:02:16.286Z,89.83
2019-01-19T18:05:05.795Z,79.63
2019-01-19T18:08:00.908Z,81.07
2019-01-19T18:10:56.175Z,84.30
2019-01-19T18:14:00.321Z,77.90
2019-01-19T18:16:50.953Z,83.97
2019-01-19T18:19:46.123Z,87.70
2019-01-19T18:22:20.423Z,95.17
2019-01-19T18:25:15.588Z,104.00
2019-01-19T18:27:48.094Z,94.17
2019-01-19T18:30:38.369Z,85.97
2019-01-19T18:33:09.868Z,81.97
2019-01-19T18:35:57.631Z,92.37
2019-01-19T18:38:35.071Z,82.57
2019-01-19T18:41:17.986Z,84.70
2019-01-19T18:43:58.235Z,90.93
2019-01-19T18:46:47.824Z,87.87
2019-01-19T18:49:37.240Z,92.47
2019-01-19T18:52:11.572Z,95.43
2019-01-19T18:54:43.052Z,95.43
2019-01-19T18:57:38.328Z,92.30
2019-01-19T19:00:27.439Z,87.73
2019-01-19T19:03:16.540Z,91.87
2019-01-19T19:05:53.592Z,94.37
2019-01-19T19:08:25.093Z,92.93
2019-01-19T19:10:56.619Z,98.67
2019-01-19T19:13:30.944Z,95.03
2019-01-19T19:16:20.544Z,91.30
2019-01-19T19:19:03.763Z,83.70
2019-01-19T19:21:47.108Z,92.60
2019-01-19T19:24:18.596Z,91.27
2019-01-19T19:26:53.193Z,94.37
2019-01-19T19:29:41.010Z,90.97
2019-01-19T19:32:30.508Z,86.57
2019-01-19T19:35:19.832Z,93.00
2019-01-19T19:37:51.341Z,102.07
2019-01-19T19:40:37.731Z,91.80
2019-01-19T19:43:24.124Z,95.63
2019-01-19T19:46:01.292Z,94.17
2019-01-19T19:48:50.336Z,89.07
2019-01-19T19:51:21.854Z,91.93
2019-01-19T19:53:50.504Z,85.47
2019-01-19T19:56:17.852Z,99.90
2019-01-19T19:58:46.284Z,98.43
2019-01-19T20:01:14.698Z,101.27
2019-01-19T20:03:43.100Z,95.67
2019-01-19T20:06:11.620Z,100.57
2019-01-19T20:08:40.032Z,93.17
2019-01-19T20:11:08.570Z,102.17
2019-01-19T20:13:37.027Z,97.63
2019-01-19T20:16:05.543Z,93.63
2019-01-19T20:18:33.985Z,100.17
2019-01-19T20:21:02.440Z,88.83
2019-01-19T20:23:30.852Z,104.27
2019-01-19T20:25:59.277Z,101.83
2019-01-19T20:28:27.707Z,101.50
2019-01-19T20:30:56.124Z,100.90
2019-01-19T20:33:24.568Z,103.83
2019-01-19T20:35:53.023Z,108.10
2019-01-19T20:38:21.449Z,106.90
2019-01-19T20:40:49.895Z,107.13
2019-01-19T20:43:18.295Z,98.50
2019-01-19T20:45:47.871Z,103.40
2019-01-19T20:48:16.415Z,101.57
2019-01-19T20:50:44.856Z,103.70
2019-01-19T20:53:13.324Z,110.03
2019-01-19T20:55:41.776Z,102.43
2019-01-19T20:58:10.275Z,97.13
2019-01-19T21:00:38.782Z,101.93
2019-01-19T21:03:07.229Z,100.40
2019-01-19T21:05:35.661Z,102.30
2019-01-19T21:08:04.157Z,150.97
2019-01-19T21:10:32.697Z,153.73
2019-01-19T21:13:01.232Z,197.37
2019-01-19T21:15:29.636Z,176.13
2019-01-19T21:17:58.071Z,205.20
2019-01-19T21:20:26.502Z,219.40
2019-01-19T21:22:54.987Z,178.67
2019-01-19T21:25:23.433Z,168.43
2019-01-19T21:27:52.064Z,179.97
2019-01-19T21:30:20.548Z,174.03
2019-01-19T21:32:49.016Z,173.37
2019-01-19T21:35:17.459Z,142.67
2019-01-19T21:37:45.879Z,142.87
2019-01-19T21:40:15.255Z,130.00
2019-01-19T21:42:43.671Z,108.70
2019-01-19T21:45:15.151Z,137.03
2019-01-19T21:47:44.265Z,128.63
2019-01-19T21:50:13.245Z,133.23
2019-01-19T21:52:41.660Z,147.17
2019-01-19T21:55:10.469Z,125.63
2019-01-19T21:57:38.923Z,128.37
2019-01-19T22:00:16.076Z,122.47
2019-01-19T22:02:44.487Z,109.50
2019-01-19T22:05:13.166Z,105.23
2019-01-19T22:07:41.595Z,106.23
2019-01-19T22:10:15.711Z,107.53
2019-01-19T22:12:44.231Z,105.03
2019-01-19T22:15:14.900Z,106.03
2019-01-19T22:17:43.552Z,114.77
2019-01-19T22:20:14.362Z,105.47
2019-01-19T22:22:42.793Z,109.10
2019-01-19T22:25:11.398Z,114.07
2019-01-19T22:27:41.628Z,101.77
2019-01-19T22:30:19.439Z,109.40
2019-01-19T22:32:49.573Z,110.17
2019-01-19T22:35:18.067Z,103.03
2019-01-19T22:37:46.570Z,98.87
2019-01-19T22:40:18.699Z,104.83
2019-01-19T22:42:47.732Z,100.50
2019-01-19T22:45:19.518Z,100.37
2019-01-19T22:47:47.943Z,105.80
2019-01-19T22:50:19.429Z,102.00
2019-01-19T22:52:47.955Z,101.00
2019-01-19T22:55:16.613Z,103.30
2019-01-19T22:57:45.107Z,94.83
2019-01-19T23:00:39.151Z,100.03
2019-01-19T23:03:07.765Z,100.00
2019-01-19T23:05:36.408Z,90.27
2019-01-19T23:08:05.084Z,87.93
2019-01-19T23:10:33.515Z,91.23
2019-01-19T23:13:02.012Z,86.10
2019-01-19T23:15:30.424Z,86.27
2019-01-19T23:17:59.008Z,94.17
2019-01-19T23:20:27.461Z,83.80
2019-01-19T23:22:56.151Z,84.30
2019-01-19T23:25:24.623Z,95.07
2019-01-19T23:27:53.189Z,93.80
2019-01-19T23:30:21.603Z,88.53
2019-01-19T23:32:50.056Z,79.67
2019-01-19T23:35:18.467Z,94.03
2019-01-19T23:37:46.889Z,92.30
2019-01-19T23:40:15.399Z,85.07
2019-01-19T23:42:47.334Z,86.07
2019-01-19T23:45:14.819Z,86.33
2019-01-19T23:47:43.330Z,83.33
2019-01-19T23:50:12.081Z,88.73
2019-01-19T23:52:40.574Z,90.27
2019-01-19T23:55:09.092Z,84.77
2019-01-19T23:57:37.628Z,89.10
